Accueil
METAR-TAF:

METAR-TAF

Aéroports :

Base aérienne 113 Saint-Dizier-Robinson

Saint-Dizier, France

latitude: 48-38N, longitude: 004-54E, altitude: 139 m

Observation

Le bulletin a été fait il y a 36 minutes, à 19:00 UTC
Vent 6 kt de sud-ouest
Température 23°C
Humidité 65%
Pression 1015 hPa
Visibilité 10 km ou plus
pas de nuages en-dessous de 1500 mètres et pas de cumulonimbus.

METAR: LFSI 141900Z AUTO 22006KT CAVOK 23/16 Q1015

Heure: 21:36 (19:36 UTC)

Prévision

Le bulletin a été fait il y a 5 heures et 36 minutes, à 14:00 UTC
Prévision valable du 14 à 15 UTC au 15 à 15 UTC
Vent 8 kt de ouest/sud-ouest
Visibilité 10 km ou plus
Nuages épars à une hauteur de 4000 ft
Temporairement
du 14 à 15 UTC au 14 à 18 UTC
Visibilité: 3000 m
Nuages fragmentés à une hauteur de 4000 ft, Cumulus congestus.
averses de pluie

TAF: LFSI 141400Z 1415/1515 24008KT 9999 SCT040 TEMPO 1415/1418 3000 SHRA BKN040TCU

Observations et prévisions météorologiques de plus de 4000 aéroports (messages METAR et TAF).

Les stations disponibles sont représentées par des disques jaunes et rouges sur la carte.

Passer la souris dessus pour voir le nom de la station.

Cliquer dessus pour voir les observations et prévisions météorologiques.

Pour changer de carte: cliquez sur les boutons verts avec une croix noire pour zoomer, sur le bouton vert avec un tiret pour effectuer un zoom arrière, ou sur les flèches vertes pour les cartes adjacentes.


METAR-TAF: